sensor_id;sensor_type;location;lat;lon;timestamp;pressure;altitude;pressure_sealevel;temperature;humidity
3260;BME280;22469;48.150;14.004;2022-12-18T00:01:27;99412.81;;;-2.17;69.73
3260;BME280;22469;48.150;14.004;2022-12-18T00:03:56;99419.69;;;-2.13;69.70
3260;BME280;22469;48.150;14.004;2022-12-18T00:06:26;99419.69;;;-2.13;68.81
3260;BME280;22469;48.150;14.004;2022-12-18T00:08:56;99424.94;;;-2.08;69.02
3260;BME280;22469;48.150;14.004;2022-12-18T00:11:26;99422.72;;;-2.01;69.31
3260;BME280;22469;48.150;14.004;2022-12-18T00:13:57;99430.50;;;-1.95;69.15
3260;BME280;22469;48.150;14.004;2022-12-18T00:16:26;99429.97;;;-1.87;69.56
3260;BME280;22469;48.150;14.004;2022-12-18T00:18:56;99426.03;;;-1.81;69.75
3260;BME280;22469;48.150;14.004;2022-12-18T00:21:27;99425.41;;;-1.75;69.69
3260;BME280;22469;48.150;14.004;2022-12-18T00:23:55;99418.25;;;-1.66;69.90
3260;BME280;22469;48.150;14.004;2022-12-18T00:26:25;99429.66;;;-1.53;69.61
3260;BME280;22469;48.150;14.004;2022-12-18T00:29:10;99425.88;;;-1.42;69.32
3260;BME280;22469;48.150;14.004;2022-12-18T00:31:42;99420.28;;;-1.35;69.14
3260;BME280;22469;48.150;14.004;2022-12-18T00:34:11;99423.94;;;-1.27;69.28
3260;BME280;22469;48.150;14.004;2022-12-18T00:36:40;99420.88;;;-1.20;69.10
3260;BME280;22469;48.150;14.004;2022-12-18T00:39:10;99430.25;;;-1.15;68.93
3260;BME280;22469;48.150;14.004;2022-12-18T00:41:39;99430.41;;;-1.11;68.86
3260;BME280;22469;48.150;14.004;2022-12-18T00:44:24;99433.09;;;-1.06;68.70
3260;BME280;22469;48.150;14.004;2022-12-18T00:46:51;99433.00;;;-1.09;68.64
3260;BME280;22469;48.150;14.004;2022-12-18T00:49:19;99431.09;;;-1.15;68.92
3260;BME280;22469;48.150;14.004;2022-12-18T00:51:47;99441.78;;;-1.21;68.69
3260;BME280;22469;48.150;14.004;2022-12-18T00:54:15;99446.66;;;-1.25;68.83
3260;BME280;22469;48.150;14.004;2022-12-18T00:56:43;99441.50;;;-1.28;69.05
3260;BME280;22469;48.150;14.004;2022-12-18T00:59:16;99445.00;;;-1.25;69.33
3260;BME280;22469;48.150;14.004;2022-12-18T01:01:44;99448.50;;;-1.21;69.72
3260;BME280;22469;48.150;14.004;2022-12-18T01:04:12;99450.31;;;-1.17;68.76
3260;BME280;22469;48.150;14.004;2022-12-18T01:06:40;99451.28;;;-1.13;69.32
3260;BME280;22469;48.150;14.004;2022-12-18T01:09:07;99450.66;;;-1.08;69.72
3260;BME280;22469;48.150;14.004;2022-12-18T01:11:34;99456.72;;;-1.03;69.97
3260;BME280;22469;48.150;14.004;2022-12-18T01:14:01;99462.00;;;-0.97;70.20
3260;BME280;22469;48.150;14.004;2022-12-18T01:16:28;99466.28;;;-0.94;70.41
3260;BME280;22469;48.150;14.004;2022-12-18T01:18:55;99477.47;;;-0.87;70.10
3260;BME280;22469;48.150;14.004;2022-12-18T01:21:24;99475.22;;;-0.80;70.36
3260;BME280;22469;48.150;14.004;2022-12-18T01:23:53;99481.22;;;-0.76;70.63
3260;BME280;22469;48.150;14.004;2022-12-18T01:26:21;99489.75;;;-0.73;70.22
3260;BME280;22469;48.150;14.004;2022-12-18T01:28:49;99475.50;;;-0.72;70.19
3260;BME280;22469;48.150;14.004;2022-12-18T01:31:28;99479.09;;;-0.65;70.17
3260;BME280;22469;48.150;14.004;2022-12-18T01:33:57;99477.53;;;-0.62;70.33
3260;BME280;22469;48.150;14.004;2022-12-18T01:36:29;99480.25;;;-0.57;70.24
3260;BME280;22469;48.150;14.004;2022-12-18T01:39:04;99487.06;;;-0.55;69.88
3260;BME280;22469;48.150;14.004;2022-12-18T01:41:34;99483.78;;;-0.52;70.15
3260;BME280;22469;48.150;14.004;2022-12-18T01:44:55;99487.16;;;-0.52;69.89
3260;BME280;22469;48.150;14.004;2022-12-18T01:47:47;99480.25;;;-0.57;69.77
3260;BME280;22469;48.150;14.004;2022-12-18T01:50:16;99473.69;;;-0.52;70.47
3260;BME280;22469;48.150;14.004;2022-12-18T01:53:14;99483.25;;;-0.43;70.90
3260;BME280;22469;48.150;14.004;2022-12-18T01:55:48;99480.78;;;-0.42;70.19
3260;BME280;22469;48.150;14.004;2022-12-18T01:58:19;99479.22;;;-0.38;71.27
3260;BME280;22469;48.150;14.004;2022-12-18T02:00:48;99475.84;;;-0.39;71.10
3260;BME280;22469;48.150;14.004;2022-12-18T02:03:15;99476.81;;;-0.35;71.49
3260;BME280;22469;48.150;14.004;2022-12-18T02:08:40;99466.63;;;-0.38;71.88
3260;BME280;22469;48.150;14.004;2022-12-18T02:17:01;99472.50;;;-0.38;72.59
3260;BME280;22469;48.150;14.004;2022-12-18T02:23:19;99476.00;;;-0.58;73.08
3260;BME280;22469;48.150;14.004;2022-12-18T02:29:16;99474.66;;;-0.49;73.58
3260;BME280;22469;48.150;14.004;2022-12-18T02:31:55;99478.34;;;-0.40;73.67
3260;BME280;22469;48.150;14.004;2022-12-18T02:34:30;99481.03;;;-0.34;73.38
3260;BME280;22469;48.150;14.004;2022-12-18T02:37:00;99472.00;;;-0.53;73.59
3260;BME280;22469;48.150;14.004;2022-12-18T02:39:32;99472.25;;;-0.45;73.12
3260;BME280;22469;48.150;14.004;2022-12-18T02:42:01;99475.50;;;-0.48;73.64
3260;BME280;22469;48.150;14.004;2022-12-18T02:44:35;99483.38;;;-0.40;73.14
3260;BME280;22469;48.150;14.004;2022-12-18T02:47:15;99480.88;;;-0.39;72.98
3260;BME280;22469;48.150;14.004;2022-12-18T02:56:11;99492.75;;;-0.36;73.19
3260;BME280;22469;48.150;14.004;2022-12-18T02:59:12;99495.31;;;-0.35;72.86
3260;BME280;22469;48.150;14.004;2022-12-18T03:04:47;99494.72;;;-0.28;73.12
3260;BME280;22469;48.150;14.004;2022-12-18T03:07:19;99481.22;;;-0.30;73.66
3260;BME280;22469;48.150;14.004;2022-12-18T03:09:54;99481.34;;;-0.27;72.77
3260;BME280;22469;48.150;14.004;2022-12-18T03:12:28;99478.03;;;-0.24;72.79
3260;BME280;22469;48.150;14.004;2022-12-18T03:15:14;99478.16;;;-0.45;73.19
3260;BME280;22469;48.150;14.004;2022-12-18T03:17:52;99480.56;;;-0.48;73.21
3260;BME280;22469;48.150;14.004;2022-12-18T03:20:25;99475.22;;;-0.57;73.77
3260;BME280;22469;48.150;14.004;2022-12-18T03:22:59;99480.34;;;-0.54;73.43
3260;BME280;22469;48.150;14.004;2022-12-18T03:25:32;99472.00;;;-0.53;73.31
3260;BME280;22469;48.150;14.004;2022-12-18T03:28:03;99483.84;;;-0.51;73.33
3260;BME280;22469;48.150;14.004;2022-12-18T03:30:33;99478.09;;;-0.46;73.21
3260;BME280;22469;48.150;14.004;2022-12-18T03:33:18;99484.16;;;-0.41;73.22
3260;BME280;22469;48.150;14.004;2022-12-18T03:35:48;99478.97;;;-0.46;73.19
3260;BME280;22469;48.150;14.004;2022-12-18T03:38:16;99489.75;;;-0.50;72.98
3260;BME280;22469;48.150;14.004;2022-12-18T03:44:08;99500.78;;;-0.46;73.10
3260;BME280;22469;48.150;14.004;2022-12-18T03:46:41;99506.63;;;-0.47;72.66
3260;BME280;22469;48.150;14.004;2022-12-18T03:49:48;99502.13;;;-0.56;72.90
3260;BME280;22469;48.150;14.004;2022-12-18T03:52:35;99506.19;;;-0.60;73.22
3260;BME280;22469;48.150;14.004;2022-12-18T03:55:07;99504.16;;;-0.68;72.79
3260;BME280;22469;48.150;14.004;2022-12-18T03:57:36;99503.97;;;-0.75;72.64
3260;BME280;22469;48.150;14.004;2022-12-18T04:00:16;99510.56;;;-0.78;73.01
3260;BME280;22469;48.150;14.004;2022-12-18T04:02:51;99509.50;;;-0.83;72.82
3260;BME280;22469;48.150;14.004;2022-12-18T04:05:20;99501.19;;;-1.03;73.56
3260;BME280;22469;48.150;14.004;2022-12-18T04:07:50;99504.84;;;-1.17;74.02
3260;BME280;22469;48.150;14.004;2022-12-18T04:10:18;99517.25;;;-1.22;73.76
3260;BME280;22469;48.150;14.004;2022-12-18T04:12:48;99516.53;;;-1.20;73.92
3260;BME280;22469;48.150;14.004;2022-12-18T04:15:15;99524.16;;;-1.16;74.14
3260;BME280;22469;48.150;14.004;2022-12-18T04:17:49;99529.13;;;-1.20;74.15
3260;BME280;22469;48.150;14.004;2022-12-18T04:20:17;99540.34;;;-1.32;74.33
3260;BME280;22469;48.150;14.004;2022-12-18T04:22:44;99537.44;;;-1.21;73.84
3260;BME280;22469;48.150;14.004;2022-12-18T04:25:12;99529.31;;;-1.13;74.03
3260;BME280;22469;48.150;14.004;2022-12-18T04:27:39;99532.25;;;-1.03;73.89
3260;BME280;22469;48.150;14.004;2022-12-18T04:30:06;99525.72;;;-0.99;73.62
3260;BME280;22469;48.150;14.004;2022-12-18T04:32:34;99527.47;;;-0.97;73.48
3260;BME280;22469;48.150;14.004;2022-12-18T04:35:02;99527.31;;;-1.01;73.50
3260;BME280;22469;48.150;14.004;2022-12-18T04:37:30;99530.25;;;-1.11;73.58
3260;BME280;22469;48.150;14.004;2022-12-18T04:39:57;99527.31;;;-1.22;74.08
3260;BME280;22469;48.150;14.004;2022-12-18T04:42:24;99518.34;;;-1.15;74.41
3260;BME280;22469;48.150;14.004;2022-12-18T04:44:51;99528.47;;;-1.14;73.86
3260;BME280;22469;48.150;14.004;2022-12-18T04:47:18;99528.03;;;-1.04;73.77
3260;BME280;22469;48.150;14.004;2022-12-18T04:49:45;99534.84;;;-1.01;73.34
3260;BME280;22469;48.150;14.004;2022-12-18T04:52:12;99535.94;;;-0.94;73.40
3260;BME280;22469;48.150;14.004;2022-12-18T04:54:39;99533.56;;;-0.91;73.44
3260;BME280;22469;48.150;14.004;2022-12-18T04:57:06;99532.00;;;-0.88;73.48
3260;BME280;22469;48.150;14.004;2022-12-18T04:59:33;99531.78;;;-0.94;74.27
3260;BME280;22469;48.150;14.004;2022-12-18T05:02:00;99525.31;;;-0.87;73.89
3260;BME280;22469;48.150;14.004;2022-12-18T05:04:27;99531.28;;;-0.85;73.93
3260;BME280;22469;48.150;14.004;2022-12-18T05:06:54;99527.22;;;-0.82;73.75
3260;BME280;22469;48.150;14.004;2022-12-18T05:09:21;99527.41;;;-0.76;73.84
3260;BME280;22469;48.150;14.004;2022-12-18T05:11:49;99515.63;;;-0.77;74.00
3260;BME280;22469;48.150;14.004;2022-12-18T05:14:16;99529.81;;;-0.79;73.92
3260;BME280;22469;48.150;14.004;2022-12-18T05:16:43;99523.06;;;-0.80;73.64
3260;BME280;22469;48.150;14.004;2022-12-18T05:19:11;99527.25;;;-0.80;73.99
3260;BME280;22469;48.150;14.004;2022-12-18T05:21:38;99537.50;;;-0.76;73.74
3260;BME280;22469;48.150;14.004;2022-12-18T05:24:05;99533.84;;;-0.84;74.05
3260;BME280;22469;48.150;14.004;2022-12-18T05:26:33;99542.38;;;-0.80;73.82
3260;BME280;22469;48.150;14.004;2022-12-18T05:29:00;99544.84;;;-0.82;73.83
3260;BME280;22469;48.150;14.004;2022-12-18T05:31:27;99551.91;;;-0.94;74.11
3260;BME280;22469;48.150;14.004;2022-12-18T05:33:54;99545.34;;;-0.90;73.80
3260;BME280;22469;48.150;14.004;2022-12-18T05:36:21;99550.72;;;-0.81;73.86
3260;BME280;22469;48.150;14.004;2022-12-18T05:38:48;99547.66;;;-0.74;73.53
3260;BME280;22469;48.150;14.004;2022-12-18T05:41:15;99554.56;;;-0.68;73.12
3260;BME280;22469;48.150;14.004;2022-12-18T05:43:43;99552.06;;;-0.89;73.87
3260;BME280;22469;48.150;14.004;2022-12-18T05:46:13;99556.78;;;-0.76;73.86
3260;BME280;22469;48.150;14.004;2022-12-18T05:48:42;99556.19;;;-0.70;73.06
3260;BME280;22469;48.150;14.004;2022-12-18T05:51:13;99563.78;;;-0.69;72.22
3260;BME280;22469;48.150;14.004;2022-12-18T05:53:42;99556.06;;;-0.74;72.23
3260;BME280;22469;48.150;14.004;2022-12-18T05:56:13;99568.78;;;-0.70;72.29
3260;BME280;22469;48.150;14.004;2022-12-18T05:58:43;99567.22;;;-0.67;72.35
3260;BME280;22469;48.150;14.004;2022-12-18T06:01:15;99569.16;;;-0.60;72.51
3260;BME280;22469;48.150;14.004;2022-12-18T06:03:45;99579.28;;;-0.58;72.57
3260;BME280;22469;48.150;14.004;2022-12-18T06:06:24;99582.88;;;-0.53;72.67
3260;BME280;22469;48.150;14.004;2022-12-18T06:08:54;99590.41;;;-0.53;72.78
3260;BME280;22469;48.150;14.004;2022-12-18T06:11:24;99587.16;;;-0.51;72.63
3260;BME280;22469;48.150;14.004;2022-12-18T06:13:53;99583.88;;;-0.48;72.79
3260;BME280;22469;48.150;14.004;2022-12-18T06:16:25;99592.47;;;-0.43;72.92
3260;BME280;22469;48.150;14.004;2022-12-18T06:18:56;99583.63;;;-0.33;72.74
3260;BME280;22469;48.150;14.004;2022-12-18T06:21:28;99588.31;;;-0.42;72.81
3260;BME280;22469;48.150;14.004;2022-12-18T06:23:58;99597.16;;;-0.52;72.73
3260;BME280;22469;48.150;14.004;2022-12-18T06:26:25;99605.69;;;-0.49;72.80
3260;BME280;22469;48.150;14.004;2022-12-18T06:28:54;99592.31;;;-0.47;73.10
3260;BME280;22469;48.150;14.004;2022-12-18T06:31:21;99597.25;;;-0.51;73.36
3260;BME280;22469;48.150;14.004;2022-12-18T06:33:48;99591.84;;;-0.60;73.26
3260;BME280;22469;48.150;14.004;2022-12-18T06:36:15;99600.59;;;-0.73;73.48
3260;BME280;22469;48.150;14.004;2022-12-18T06:38:43;99597.84;;;-1.00;74.30
3260;BME280;22469;48.150;14.004;2022-12-18T06:41:14;99594.72;;;-0.94;74.06
3260;BME280;22469;48.150;14.004;2022-12-18T06:43:43;99597.72;;;-1.03;74.61
3260;BME280;22469;48.150;14.004;2022-12-18T06:46:11;99590.00;;;-1.07;74.90
3260;BME280;22469;48.150;14.004;2022-12-18T06:48:39;99595.63;;;-1.13;74.88
3260;BME280;22469;48.150;14.004;2022-12-18T06:51:06;99603.69;;;-1.01;74.63
3260;BME280;22469;48.150;14.004;2022-12-18T06:53:34;99602.97;;;-1.19;74.65
3260;BME280;22469;48.150;14.004;2022-12-18T06:56:02;99611.00;;;-1.07;74.76
3260;BME280;22469;48.150;14.004;2022-12-18T06:58:37;99611.66;;;-0.90;74.76
3260;BME280;22469;48.150;14.004;2022-12-18T07:01:07;99611.91;;;-0.84;74.23
3260;BME280;22469;48.150;14.004;2022-12-18T07:03:37;99616.63;;;-0.70;74.04
3260;BME280;22469;48.150;14.004;2022-12-18T07:06:18;99628.72;;;-0.62;74.05
3260;BME280;22469;48.150;14.004;2022-12-18T07:08:47;99624.66;;;-0.58;73.63
3260;BME280;22469;48.150;14.004;2022-12-18T07:11:15;99626.41;;;-0.57;73.60
3260;BME280;22469;48.150;14.004;2022-12-18T07:13:42;99630.13;;;-0.47;73.25
3260;BME280;22469;48.150;14.004;2022-12-18T07:16:18;99633.03;;;-0.59;73.91
3260;BME280;22469;48.150;14.004;2022-12-18T07:18:52;99630.50;;;-0.59;73.72
3260;BME280;22469;48.150;14.004;2022-12-18T07:21:22;99624.72;;;-0.57;73.68
3260;BME280;22469;48.150;14.004;2022-12-18T07:23:49;99625.84;;;-0.71;73.66
3260;BME280;22469;48.150;14.004;2022-12-18T07:26:19;99633.72;;;-0.63;73.57
3260;BME280;22469;48.150;14.004;2022-12-18T07:28:47;99629.59;;;-0.61;73.57
3260;BME280;22469;48.150;14.004;2022-12-18T07:31:17;99625.59;;;-0.56;73.53
3260;BME280;22469;48.150;14.004;2022-12-18T07:33:48;99636.59;;;-0.54;73.40
3260;BME280;22469;48.150;14.004;2022-12-18T07:36:16;99642.78;;;-0.46;73.54
3260;BME280;22469;48.150;14.004;2022-12-18T07:38:46;99646.34;;;-0.41;73.05
3260;BME280;22469;48.150;14.004;2022-12-18T07:41:17;99648.75;;;-0.44;73.24
3260;BME280;22469;48.150;14.004;2022-12-18T07:43:45;99647.13;;;-0.42;72.94
3260;BME280;22469;48.150;14.004;2022-12-18T07:46:13;99647.41;;;-0.34;73.12
3260;BME280;22469;48.150;14.004;2022-12-18T07:48:42;99648.41;;;-0.31;73.11
3260;BME280;22469;48.150;14.004;2022-12-18T07:51:15;99651.94;;;-0.26;73.04
3260;BME280;22469;48.150;14.004;2022-12-18T07:53:43;99652.94;;;-0.22;73.08
3260;BME280;22469;48.150;14.004;2022-12-18T07:56:11;99657.97;;;-0.22;72.92
3260;BME280;22469;48.150;14.004;2022-12-18T07:58:57;99650.13;;;-0.30;72.56
3260;BME280;22469;48.150;14.004;2022-12-18T08:01:25;99655.28;;;-0.27;73.01
3260;BME280;22469;48.150;14.004;2022-12-18T08:03:52;99657.81;;;-0.27;72.47
3260;BME280;22469;48.150;14.004;2022-12-18T08:06:19;99651.16;;;-0.25;72.44
3260;BME280;22469;48.150;14.004;2022-12-18T08:08:54;99657.22;;;-0.19;72.58
3260;BME280;22469;48.150;14.004;2022-12-18T08:11:24;99653.16;;;-0.16;72.60
3260;BME280;22469;48.150;14.004;2022-12-18T08:13:56;99654.59;;;-0.22;72.26
3260;BME280;22469;48.150;14.004;2022-12-18T08:16:24;99657.22;;;-0.19;72.39
3260;BME280;22469;48.150;14.004;2022-12-18T08:18:52;99665.41;;;-0.25;72.75
3260;BME280;22469;48.150;14.004;2022-12-18T08:21:26;99668.22;;;-0.17;72.62
3260;BME280;22469;48.150;14.004;2022-12-18T08:24:00;99669.09;;;-0.17;72.59
3260;BME280;22469;48.150;14.004;2022-12-18T08:26:29;99665.69;;;-0.17;72.38
3260;BME280;22469;48.150;14.004;2022-12-18T08:28:59;99670.13;;;-0.12;72.40
3260;BME280;22469;48.150;14.004;2022-12-18T08:31:28;99669.09;;;-0.17;71.95
3260;BME280;22469;48.150;14.004;2022-12-18T08:33:57;99680.94;;;-0.14;71.96
3260;BME280;22469;48.150;14.004;2022-12-18T08:36:24;99673.50;;;-0.11;71.89
3260;BME280;22469;48.150;14.004;2022-12-18T08:38:52;99668.53;;;-0.10;71.68
3260;BME280;22469;48.150;14.004;2022-12-18T08:41:20;99671.72;;;-0.14;71.50
3260;BME280;22469;48.150;14.004;2022-12-18T08:43:47;99665.41;;;-0.25;71.25
3260;BME280;22469;48.150;14.004;2022-12-18T08:46:39;99664.28;;;-0.33;71.26
3260;BME280;22469;48.150;14.004;2022-12-18T08:49:09;99659.59;;;-0.45;70.92
3260;BME280;22469;48.150;14.004;2022-12-18T08:51:38;99662.56;;;-0.55;72.02
3260;BME280;22469;48.150;14.004;2022-12-18T08:54:06;99669.41;;;-0.53;71.94
3260;BME280;22469;48.150;14.004;2022-12-18T08:56:33;99668.66;;;-0.50;71.84
3260;BME280;22469;48.150;14.004;2022-12-18T08:59:01;99670.00;;;-0.37;71.53
3260;BME280;22469;48.150;14.004;2022-12-18T09:01:28;99668.66;;;-0.28;71.30
3260;BME280;22469;48.150;14.004;2022-12-18T09:03:56;99663.81;;;-0.23;70.61
3260;BME280;22469;48.150;14.004;2022-12-18T09:06:23;99665.06;;;-0.12;70.93
3260;BME280;22469;48.150;14.004;2022-12-18T09:08:50;99673.50;;;-0.11;71.25
3260;BME280;22469;48.150;14.004;2022-12-18T09:11:26;99660.50;;;0.01;71.39
3260;BME280;22469;48.150;14.004;2022-12-18T09:13:55;99658.38;;;0.11;70.54
3260;BME280;22469;48.150;14.004;2022-12-18T09:16:23;99657.78;;;-0.04;70.08
3260;BME280;22469;48.150;14.004;2022-12-18T09:18:58;99657.38;;;-0.15;70.34
3260;BME280;22469;48.150;14.004;2022-12-18T09:21:28;99659.41;;;-0.06;70.03
3260;BME280;22469;48.150;14.004;2022-12-18T09:24:01;99669.81;;;0.03;70.03
3260;BME280;22469;48.150;14.004;2022-12-18T09:26:28;99666.03;;;0.14;69.90
3260;BME280;22469;48.150;14.004;2022-12-18T09:28:56;99658.78;;;0.23;69.86
3260;BME280;22469;48.150;14.004;2022-12-18T09:31:24;99675.91;;;-0.14;70.31
3260;BME280;22469;48.150;14.004;2022-12-18T09:33:51;99666.63;;;-0.15;70.30
3260;BME280;22469;48.150;14.004;2022-12-18T09:36:19;99671.69;;;0.07;71.10
3260;BME280;22469;48.150;14.004;2022-12-18T09:38:47;99668.94;;;0.25;70.78
3260;BME280;22469;48.150;14.004;2022-12-18T09:41:47;99666.81;;;0.36;70.29
3260;BME280;22469;48.150;14.004;2022-12-18T09:44:33;99665.19;;;0.14;69.96
3260;BME280;22469;48.150;14.004;2022-12-18T09:47:18;99669.69;;;0.22;70.18
3260;BME280;22469;48.150;14.004;2022-12-18T09:49:52;99673.53;;;0.35;69.74
3260;BME280;22469;48.150;14.004;2022-12-18T09:52:39;99663.53;;;0.38;69.30
3260;BME280;22469;48.150;14.004;2022-12-18T09:55:17;99667.78;;;0.17;69.31
3260;BME280;22469;48.150;14.004;2022-12-18T09:57:57;99665.94;;;0.35;69.16
3260;BME280;22469;48.150;14.004;2022-12-18T10:00:32;99661.13;;;0.41;68.87
3260;BME280;22469;48.150;14.004;2022-12-18T10:03:03;99663.16;;;0.52;68.96
3260;BME280;22469;48.150;14.004;2022-12-18T10:06:06;99660.56;;;0.74;68.88
3260;BME280;22469;48.150;14.004;2022-12-18T10:14:30;99666.78;;;-0.11;68.95
3260;BME280;22469;48.150;14.004;2022-12-18T10:23:12;99664.06;;;-1.02;73.04
3260;BME280;22469;48.150;14.004;2022-12-18T10:28:35;99652.34;;;-0.81;72.80
3260;BME280;22469;48.150;14.004;2022-12-18T10:31:05;99650.44;;;-0.86;72.40
3260;BME280;22469;48.150;14.004;2022-12-18T10:33:34;99642.81;;;-0.67;72.28
3260;BME280;22469;48.150;14.004;2022-12-18T10:36:01;99633.00;;;-0.82;72.48
3260;BME280;22469;48.150;14.004;2022-12-18T10:38:31;99631.22;;;-0.62;72.57
3260;BME280;22469;48.150;14.004;2022-12-18T10:43:38;99626.50;;;-0.32;71.43
3260;BME280;22469;48.150;14.004;2022-12-18T10:48:55;99614.56;;;-0.81;71.80
3260;BME280;22469;48.150;14.004;2022-12-18T10:51:33;99614.81;;;-0.52;71.54
3260;BME280;22469;48.150;14.004;2022-12-18T10:54:12;99605.72;;;-0.92;71.73
3260;BME280;22469;48.150;14.004;2022-12-18T10:56:50;99601.69;;;-0.66;71.95
3260;BME280;22469;48.150;14.004;2022-12-18T10:59:17;99607.09;;;-0.57;71.42
3260;BME280;22469;48.150;14.004;2022-12-18T11:04:18;99609.00;;;-0.51;71.26
3260;BME280;22469;48.150;14.004;2022-12-18T11:07:08;99595.63;;;-0.26;70.76
3260;BME280;22469;48.150;14.004;2022-12-18T11:09:39;99600.00;;;0.02;70.62
3260;BME280;22469;48.150;14.004;2022-12-18T11:12:19;99602.06;;;0.12;69.81
3260;BME280;22469;48.150;14.004;2022-12-18T11:14:54;99599.38;;;0.08;69.20
3260;BME280;22469;48.150;14.004;2022-12-18T11:17:31;99596.97;;;0.35;68.85
3260;BME280;22469;48.150;14.004;2022-12-18T11:20:54;99597.47;;;0.50;68.71
3260;BME280;22469;48.150;14.004;2022-12-18T11:23:05;99596.59;;;0.75;68.40
3260;BME280;22469;48.150;14.004;2022-12-18T11:25:39;99590.47;;;0.92;67.82
3260;BME280;22469;48.150;14.004;2022-12-18T11:28:26;99600.94;;;1.05;67.08
3260;BME280;22469;48.150;14.004;2022-12-18T11:31:28;99590.72;;;0.75;66.26
3260;BME280;22469;48.150;14.004;2022-12-18T11:34:02;99603.53;;;0.55;66.53
3260;BME280;22469;48.150;14.004;2022-12-18T11:36:52;99593.81;;;0.66;66.16
3260;BME280;22469;48.150;14.004;2022-12-18T11:47:56;99578.06;;;0.23;66.82
3260;BME280;22469;48.150;14.004;2022-12-18T11:53:12;99575.84;;;0.33;67.85
3260;BME280;22469;48.150;14.004;2022-12-18T12:01:44;99571.50;;;0.29;67.30
3260;BME280;22469;48.150;14.004;2022-12-18T12:04:27;99559.88;;;0.08;67.70
3260;BME280;22469;48.150;14.004;2022-12-18T12:10:14;99556.50;;;-0.16;68.47
3260;BME280;22469;48.150;14.004;2022-12-18T12:13:03;99558.16;;;-0.17;68.42
3260;BME280;22469;48.150;14.004;2022-12-18T12:16:06;99553.75;;;-0.22;68.98
3260;BME280;22469;48.150;14.004;2022-12-18T12:19:02;99549.19;;;-0.09;68.53
3260;BME280;22469;48.150;14.004;2022-12-18T12:21:40;99554.19;;;0.14;67.91
3260;BME280;22469;48.150;14.004;2022-12-18T12:24:44;99566.47;;;0.29;68.24
3260;BME280;22469;48.150;14.004;2022-12-18T12:39:54;99576.75;;;0.59;67.13
3260;BME280;22469;48.150;14.004;2022-12-18T12:42:44;99568.78;;;0.74;66.83
3260;BME280;22469;48.150;14.004;2022-12-18T12:51:32;99559.06;;;0.59;66.79
3260;BME280;22469;48.150;14.004;2022-12-18T12:54:14;99567.88;;;0.71;66.64
3260;BME280;22469;48.150;14.004;2022-12-18T12:57:21;99571.22;;;0.70;66.59
3260;BME280;22469;48.150;14.004;2022-12-18T13:05:52;99574.50;;;0.42;67.23
3260;BME280;22469;48.150;14.004;2022-12-18T13:08:27;99582.44;;;0.53;66.63
3260;BME280;22469;48.150;14.004;2022-12-18T13:11:01;99587.47;;;0.53;66.89
3260;BME280;22469;48.150;14.004;2022-12-18T13:14:24;99596.31;;;0.66;67.44
3260;BME280;22469;48.150;14.004;2022-12-18T13:20:14;99596.09;;;0.85;66.81
3260;BME280;22469;48.150;14.004;2022-12-18T13:22:48;99591.78;;;0.81;66.94
3260;BME280;22469;48.150;14.004;2022-12-18T13:25:31;99594.56;;;0.63;67.13
3260;BME280;22469;48.150;14.004;2022-12-18T13:30:45;99606.81;;;0.78;66.57
3260;BME280;22469;48.150;14.004;2022-12-18T13:35:52;99596.16;;;0.36;67.23
3260;BME280;22469;48.150;14.004;2022-12-18T13:38:39;99596.25;;;0.15;67.75
3260;BME280;22469;48.150;14.004;2022-12-18T13:49:02;99592.81;;;-0.11;68.81
3260;BME280;22469;48.150;14.004;2022-12-18T13:51:47;99591.78;;;-0.16;68.50
3260;BME280;22469;48.150;14.004;2022-12-18T13:57:04;99579.78;;;0.01;68.58
3260;BME280;22469;48.150;14.004;2022-12-18T13:59:40;99577.66;;;-0.11;68.53
3260;BME280;22469;48.150;14.004;2022-12-18T14:02:18;99587.28;;;-0.01;68.45
3260;BME280;22469;48.150;14.004;2022-12-18T14:04:49;99590.13;;;-0.38;69.81
3260;BME280;22469;48.150;14.004;2022-12-18T14:07:25;99586.53;;;-0.22;69.80
3260;BME280;22469;48.150;14.004;2022-12-18T14:10:00;99595.00;;;-0.20;69.67
3260;BME280;22469;48.150;14.004;2022-12-18T14:12:49;99596.69;;;-0.43;70.37
3260;BME280;22469;48.150;14.004;2022-12-18T14:20:31;99596.38;;;-0.06;70.14
3260;BME280;22469;48.150;14.004;2022-12-18T14:22:59;99606.63;;;-0.46;71.23
3260;BME280;22469;48.150;14.004;2022-12-18T14:25:29;99592.88;;;-0.32;70.67
3260;BME280;22469;48.150;14.004;2022-12-18T14:30:40;99604.53;;;-1.00;72.55
3260;BME280;22469;48.150;14.004;2022-12-18T14:33:13;99600.13;;;-0.85;72.98
3260;BME280;22469;48.150;14.004;2022-12-18T14:36:03;99598.69;;;-0.57;72.26
3260;BME280;22469;48.150;14.004;2022-12-18T14:38:37;99604.28;;;-0.42;71.76
3260;BME280;22469;48.150;14.004;2022-12-18T14:41:13;99600.69;;;-0.26;71.57
3260;BME280;22469;48.150;14.004;2022-12-18T14:43:43;99605.25;;;-0.16;71.02
3260;BME280;22469;48.150;14.004;2022-12-18T14:46:38;99613.72;;;-0.14;71.14
3260;BME280;22469;48.150;14.004;2022-12-18T14:51:52;99610.41;;;-0.35;71.38
3260;BME280;22469;48.150;14.004;2022-12-18T14:54:22;99615.69;;;-0.29;71.65
3260;BME280;22469;48.150;14.004;2022-12-18T14:57:25;99612.84;;;-0.59;72.08
3260;BME280;22469;48.150;14.004;2022-12-18T15:00:06;99614.81;;;-0.75;72.70
3260;BME280;22469;48.150;14.004;2022-12-18T15:02:42;99619.94;;;-0.92;73.88
3260;BME280;22469;48.150;14.004;2022-12-18T15:07:49;99626.00;;;-0.89;74.15
3260;BME280;22469;48.150;14.004;2022-12-18T15:10:30;99620.41;;;-0.59;73.63
3260;BME280;22469;48.150;14.004;2022-12-18T15:18:02;99622.59;;;-0.89;74.15
3260;BME280;22469;48.150;14.004;2022-12-18T15:20:54;99634.41;;;-1.09;74.94
3260;BME280;22469;48.150;14.004;2022-12-18T15:26:08;99643.63;;;-0.89;74.80
3260;BME280;22469;48.150;14.004;2022-12-18T15:36:20;99652.28;;;-0.39;73.09
3260;BME280;22469;48.150;14.004;2022-12-18T15:38:54;99645.69;;;-0.35;72.77
3260;BME280;22469;48.150;14.004;2022-12-18T15:41:33;99638.03;;;-0.16;72.56
3260;BME280;22469;48.150;14.004;2022-12-18T15:44:02;99643.19;;;-0.58;73.04
3260;BME280;22469;48.150;14.004;2022-12-18T15:46:30;99642.28;;;-0.58;73.58
3260;BME280;22469;48.150;14.004;2022-12-18T15:48:58;99633.72;;;-0.63;73.69
3260;BME280;22469;48.150;14.004;2022-12-18T15:51:35;99629.59;;;-0.61;73.62
3260;BME280;22469;48.150;14.004;2022-12-18T15:54:08;99627.00;;;-0.63;73.48
3260;BME280;22469;48.150;14.004;2022-12-18T15:56:39;99623.31;;;-0.50;73.73
3260;BME280;22469;48.150;14.004;2022-12-18T15:59:25;99632.13;;;-0.61;74.08